Flight Track Log - Related Links

Times and Time Zones

All times are in EDT time to prevent confusion due to time zone crossing. See the UAL5999 flight status page for this flight to view local times or setup timezone preferences in your user account.

Time Position Orientation Groundspeed Altitude Reporting Facility
EDT Latitude Longitude Course Direction KTS MPH feet Rate Location/Type
Sat 01:50:50 PM 36.1947 -95.8583 10° North 180 207 1,200  Level Kansas City Center
Sat 01:51:34 PM 36.2081 -95.8178 68° East 202 232 2,400 1,548 Climbing Kansas City Center
Sat 01:52:23 PM 36.2514 -95.8100 North 267 307 3,600 2,312 Climbing Kansas City Center
Sat 01:53:23 PM 36.3464 -95.7953 North 283 326 6,600 2,640 Climbing Kansas City Center
Sat 01:54:00 PM 36.5615 -95.8055 11° North  Level FlightAware Approximate
Sat 01:54:28 PM 36.4292 -95.7822 North 293 337 9,100  Level Kansas City Center
Sat 01:55:00 PM 36.6560 -95.7855 North  Level FlightAware Approximate
Sat 01:55:28 PM 36.5153 -95.7686 North 303 349 10,800  Level Kansas City Center
Sat 01:56:00 PM 36.7507 -95.7665 10° North  Level FlightAware Approximate
Sat 01:56:31 PM 36.6158 -95.7525 North 349 402 12,600  Level Kansas City Center
Sat 01:57:32 PM 36.7183 -95.7375 North 364 419 14,800 1,721 Climbing Kansas City Center
Sat 01:58:33 PM 36.8222 -95.7203 North 370 426 16,100 1,210 Climbing Kansas City Center
Sat 01:59:36 PM 36.9347 -95.7061 North 394 453 17,300 1,584 Climbing Kansas City Center
Sat 02:00:38 PM 37.0486 -95.6878 North 406 467 19,400 1,968 Climbing Kansas City Center
Sat 02:01:41 PM 37.1553 -95.6694 North 396 456 21,400 1,645 Climbing Kansas City Center
Sat 02:02:42 PM 37.2814 -95.6494 North 382 440 22,800 1,210 Climbing Kansas City Center
Sat 02:03:45 PM 37.3900 -95.6319 North 388 447 23,900 1,113 Climbing Kansas City Center
Sat 02:04:46 PM 37.5008 -95.6131 North 398 458 25,100 1,220 Climbing Kansas City Center
Sat 02:05:48 PM 37.6108 -95.5958 North 398 458 26,400 1,220 Climbing Kansas City Center
Sat 02:06:49 PM 37.7014 -95.5100 37° Northeast 412 474 27,600 1,152 Climbing Kansas City Center
Sat 02:07:53 PM 37.7881 -95.4086 43° Northeast 422 486 28,800 1,200 Climbing Kansas City Center
Sat 02:08:54 PM 37.8767 -95.3097 41° Northeast 423 487 30,100 1,463 Climbing Kansas City Center
Sat 02:09:56 PM 37.9800 -95.1900 42° Northeast 423 487 31,800 1,415 Climbing Kansas City Center
Sat 02:10:57 PM 38.0611 -95.0936 43° Northeast 421 484 33,000 581 Climbing Kansas City Center
Sat 02:12:00 PM 38.1600 -94.9819 42° Northeast 424 488 33,000  Level Kansas City Center
Sat 02:13:01 PM 38.2519 -94.8753 42° Northeast 447 514 33,000  Level Kansas City Center
Sat 02:14:01 PM 38.3642 -94.7411 43° Northeast 487 560 33,000  Level Kansas City Center
Sat 02:15:05 PM 38.4606 -94.6292 42° Northeast 490 564 33,000  Level Kansas City Center
Sat 02:16:06 PM 38.5569 -94.5150 43° Northeast 493 567 33,000  Level Kansas City Center
Sat 02:17:09 PM 38.6694 -94.3814 43° Northeast 496 571 33,000  Level Kansas City Center
Sat 02:18:11 PM 38.7661 -94.2664 43° Northeast 496 571 33,000  Level Kansas City Center
Sat 02:19:13 PM 38.8783 -94.1339 43° Northeast 494 568 33,000 639 Level Kansas City Center
Sat 02:20:13 PM 38.9733 -94.0194 43° Northeast 492 566 34,300 992 Climbing Kansas City Center
Sat 02:21:14 PM 39.0789 -93.8922 43° Northeast 473 544 35,000 341 Climbing Kansas City Center
Sat 02:22:16 PM 39.1719 -93.7781 44° Northeast 479 551 35,000  Level Kansas City Center
Sat 02:23:19 PM 39.2808 -93.6475 43° Northeast 493 567 35,000  Level Kansas City Center
Sat 02:24:19 PM 39.3797 -93.5300 43° Northeast 488 562 35,000  Level Kansas City Center
Sat 02:25:21 PM 39.4733 -93.4122 44° Northeast 479 551 35,000  Level Kansas City Center
Sat 02:26:25 PM 39.5517 -93.2728 54° Northeast 479 551 35,000  Level Kansas City Center
Sat 02:27:26 PM 39.6306 -93.1308 54° Northeast 488 562 35,000  Level Kansas City Center
Sat 02:28:27 PM 39.7231 -92.9575 55° Northeast 492 566 35,000  Level Kansas City Center
Sat 02:29:28 PM 39.8011 -92.8150 54° Northeast 492 566 35,000  Level Kansas City Center
Sat 02:30:29 PM 39.8792 -92.6708 55° Northeast 492 566 35,000  Level Kansas City Center
Sat 02:31:33 PM 39.9569 -92.5258 55° Northeast 495 570 35,000  Level Kansas City Center
Sat 02:32:34 PM 40.0442 -92.3481 57° Northeast 496 571 35,000  Level Kansas City Center
Sat 02:33:34 PM 40.1094 -92.1928 61° Northeast 498 573 35,000  Level Kansas City Center
Sat 02:34:38 PM 40.1742 -92.0361 62° Northeast 498 573 35,000  Level Kansas City Center
Sat 02:35:39 PM 40.2394 -91.8814 61° Northeast 495 570 35,000 -341 Level Kansas City Center
Sat 02:36:41 PM 40.3042 -91.7242 62° Northeast 496 571 34,300 -976 Descending Kansas City Center
Sat 02:37:42 PM 40.3828 -91.5369 61° Northeast 494 568 33,000 -639 Descending Kansas City Center
Sat 02:38:43 PM 40.4461 -91.3819 62° Northeast 489 563 33,000  Level Kansas City Center
Sat 02:39:44 PM 40.5039 -91.2400 62° Northeast 489 563 33,000  Level Kansas City Center
Sat 02:40:24 PM 40.5567 -91.1122 61° Northeast 496 571 33,000  Level Chicago Center
Sat 02:41:27 PM 40.6219 -90.9508 62° Northeast 499 574 33,000  Level Chicago Center
Sat 02:42:28 PM 40.6869 -90.7881 62° Northeast 501 577 33,000  Level Chicago Center
Sat 02:43:30 PM 40.7533 -90.6250 62° Northeast 503 579 33,000  Level Chicago Center
Sat 02:44:32 PM 40.8172 -90.4625 63° Northeast 498 573 33,000 -48 Level Chicago Center
Sat 02:45:34 PM 40.8833 -90.2975 62° Northeast 503 579 32,900 -484 Descending Chicago Center
Sat 02:46:36 PM 40.9503 -90.1292 62° Northeast 494 568 32,000 -1,790 Descending Chicago Center
Sat 02:47:38 PM 41.0250 -89.9372 63° Northeast 498 573 29,200 -2,565 Descending Chicago Center
Sat 02:48:40 PM 41.0914 -89.7664 63° Northeast 512 589 26,700 -2,323 Descending Chicago Center
Sat 02:49:42 PM 41.1544 -89.6031 63° Northeast 502 578 24,400 -2,129 Descending Chicago Center
Sat 02:50:44 PM 41.1678 -89.4336 84° East 469 540 22,300 -1,887 Descending Chicago Center
Sat 02:51:46 PM 41.1683 -89.2597 90° East 470 541 20,500 -1,694 Descending Chicago Center
Sat 02:52:48 PM 41.1822 -89.1172 83° East 406 467 18,800 -2,323 Descending Chicago Center
Sat 02:53:50 PM 41.2022 -88.9394 81° East 408 470 15,700 -2,293 Descending Chicago Center
Sat 02:54:51 PM 41.2186 -88.7953 81° East 401 461 14,100 -829 Descending Chicago Center
Sat 02:55:53 PM 41.2964 -88.7017 42° Northeast 377 434 14,000 -871 Descending Chicago Center
Sat 02:56:55 PM 41.3817 -88.6211 35° Northeast 373 429 12,300 -1,452 Descending Chicago Center
Sat 02:57:57 PM 41.4647 -88.5436 35° Northeast 365 420 11,000 -629 Descending Chicago Center
Sat 02:58:59 PM 41.5467 -88.4639 36° Northeast 363 418 11,000  Level Chicago Center
Sat 03:00:01 PM 41.6436 -88.3692 36° Northeast 357 411 11,000  Level Chicago Center
Sat 03:01:03 PM 41.7192 -88.2778 42° Northeast 359 413 11,000  Level Chicago Center
Sat 03:02:05 PM 41.7836 -88.1658 52° Northeast 375 432 11,000 -387 Level Chicago Center
Sat 03:03:07 PM 41.8392 -88.0694 52° Northeast 321 369 10,200 -1,200 Descending Chicago Center
Sat 03:04:05 PM 41.8833 -87.9667 60° Northeast 291 335 8,600 -1,446 Descending Chicago TRACON
Sat 03:04:59 PM 41.8833 -87.8833 90° East 300 345 7,500 -1,000 Descending Chicago TRACON
Sat 03:06:05 PM 41.8833 -87.7667 90° East 242 278 6,600 -1,350 Descending Chicago TRACON
Sat 03:06:59 PM 41.9000 -87.6833 75° East 251 289 4,800 -2,000 Descending Chicago TRACON
Sat 03:07:14 PM 41.9028 -87.6775 57° Northeast 249 287 4,300 -1,403 Descending Chicago Center
Sat 03:08:16 PM 41.9528 -87.7139 332° Northwest 239 275 3,000 -1,258 Descending Chicago Center

Login

Don't have an account? Register now (free) for customized features, flight alerts, and more!